createdAt,value
2018-07-15T00:01:01.128Z,24.67
2018-07-15T00:03:39.109Z,24.67
2018-07-15T00:06:10.266Z,28.33
2018-07-15T00:08:40.841Z,26.33
2018-07-15T00:11:13.506Z,25.67
2018-07-15T00:13:45.316Z,23.67
2018-07-15T00:16:16.903Z,26.67
2018-07-15T00:18:48.954Z,26.00
2018-07-15T00:21:20.820Z,24.00
2018-07-15T00:23:52.771Z,26.33
2018-07-15T00:26:24.484Z,28.33
2018-07-15T00:28:55.152Z,24.00
2018-07-15T00:31:27.456Z,24.00
2018-07-15T00:33:58.592Z,22.67
2018-07-15T00:36:29.442Z,25.00
2018-07-15T00:39:00.248Z,24.67
2018-07-15T00:41:31.339Z,24.33
2018-07-15T00:44:03.672Z,25.00
2018-07-15T00:46:36.029Z,31.00
2018-07-15T00:49:10.567Z,23.00
2018-07-15T00:51:44.861Z,25.00
2018-07-15T00:54:15.504Z,23.67
2018-07-15T00:56:46.611Z,25.00
2018-07-15T00:59:20.141Z,26.33
2018-07-15T01:01:51.356Z,24.67
2018-07-15T01:04:22.554Z,23.33
2018-07-15T01:06:54.224Z,26.00
2018-07-15T01:09:25.072Z,22.67
2018-07-15T01:11:56.859Z,21.00
2018-07-15T01:14:27.445Z,25.00
2018-07-15T01:16:58.391Z,22.33
2018-07-15T01:19:30.393Z,22.00
2018-07-15T01:22:01.240Z,26.33
2018-07-15T01:24:34.105Z,22.33
2018-07-15T01:27:04.912Z,22.33
2018-07-15T01:29:36.222Z,24.67
2018-07-15T01:32:06.834Z,25.00
2018-07-15T01:34:37.617Z,23.00
2018-07-15T01:37:09.190Z,24.33
2018-07-15T01:39:39.700Z,25.00
2018-07-15T01:42:10.835Z,24.67
2018-07-15T01:44:42.960Z,24.33
2018-07-15T01:47:14.611Z,22.33
2018-07-15T01:49:45.189Z,22.00
2018-07-15T01:52:16.362Z,22.67
2018-07-15T01:54:47.004Z,25.67
2018-07-15T01:57:17.579Z,22.67
2018-07-15T01:59:48.724Z,24.67
2018-07-15T02:02:19.486Z,24.67
2018-07-15T02:04:50.515Z,25.00
2018-07-15T02:07:21.092Z,23.00
2018-07-15T02:09:51.997Z,22.00
2018-07-15T02:12:22.619Z,24.33
2018-07-15T02:14:54.379Z,22.67
2018-07-15T02:17:30.687Z,26.00
2018-07-15T02:20:03.013Z,22.67
2018-07-15T02:22:33.948Z,24.67
2018-07-15T02:25:04.565Z,22.67
2018-07-15T02:27:35.232Z,24.67
2018-07-15T02:30:07.516Z,24.33
2018-07-15T02:32:38.198Z,24.67
2018-07-15T02:35:08.822Z,25.00
2018-07-15T02:37:39.379Z,21.67
2018-07-15T02:40:09.941Z,23.33
2018-07-15T02:42:40.680Z,23.33
2018-07-15T02:45:19.625Z,24.33
2018-07-15T02:47:50.270Z,22.67
2018-07-15T02:50:23.634Z,20.67
2018-07-15T02:52:54.225Z,27.33
2018-07-15T02:55:25.372Z,28.00
2018-07-15T02:57:56.520Z,23.67
2018-07-15T03:00:28.954Z,23.00
2018-07-15T03:03:00.453Z,24.33
2018-07-15T03:05:30.997Z,24.00
2018-07-15T03:08:01.665Z,22.00
2018-07-15T03:10:32.349Z,24.00
2018-07-15T03:13:02.982Z,23.33
2018-07-15T03:15:33.601Z,21.67
2018-07-15T03:18:04.120Z,22.67
2018-07-15T03:20:34.518Z,22.67
2018-07-15T03:23:07.208Z,23.67
2018-07-15T03:25:37.775Z,23.00
2018-07-15T03:28:08.307Z,24.00
2018-07-15T03:30:40.173Z,24.00
2018-07-15T03:33:10.856Z,25.67
2018-07-15T03:35:41.402Z,26.67
2018-07-15T03:38:11.952Z,23.00
2018-07-15T03:40:42.485Z,27.00
2018-07-15T03:43:13.081Z,23.33
2018-07-15T03:45:44.405Z,24.00
2018-07-15T03:48:14.937Z,26.00
2018-07-15T03:50:45.545Z,24.33
2018-07-15T03:53:16.110Z,26.00
2018-07-15T03:55:48.685Z,22.00
2018-07-15T03:58:22.369Z,22.67
2018-07-15T04:00:55.439Z,23.33
2018-07-15T04:03:27.361Z,23.00
2018-07-15T04:05:57.954Z,24.00
2018-07-15T04:08:29.855Z,24.00
2018-07-15T04:11:00.734Z,23.67
2018-07-15T04:13:31.349Z,24.00
2018-07-15T04:16:01.901Z,27.67
2018-07-15T04:18:32.582Z,20.67
2018-07-15T04:21:03.209Z,20.67
2018-07-15T04:23:33.786Z,23.00
2018-07-15T04:26:04.929Z,22.67
2018-07-15T04:28:37.396Z,23.67
2018-07-15T04:31:08.812Z,27.00
2018-07-15T04:33:39.596Z,25.00
2018-07-15T04:36:10.161Z,26.00
2018-07-15T04:38:40.674Z,25.67
2018-07-15T04:41:11.720Z,21.67
2018-07-15T04:43:42.302Z,22.00
2018-07-15T04:46:13.259Z,23.67
2018-07-15T04:48:43.816Z,28.33
2018-07-15T04:51:15.114Z,28.67
2018-07-15T04:53:47.245Z,23.00
2018-07-15T04:56:18.576Z,21.33
2018-07-15T04:58:49.142Z,23.00
2018-07-15T05:01:20.535Z,24.67
2018-07-15T05:03:51.187Z,27.00
2018-07-15T05:06:23.271Z,22.67
2018-07-15T05:08:53.927Z,26.33
2018-07-15T05:11:24.305Z,20.67
2018-07-15T05:13:55.422Z,23.00
2018-07-15T05:16:26.831Z,24.67
2018-07-15T05:18:57.364Z,26.00
2018-07-15T05:21:30.218Z,26.00
2018-07-15T05:24:01.651Z,21.67
2018-07-15T05:26:32.168Z,22.67
2018-07-15T05:29:02.496Z,23.00
2018-07-15T05:31:33.207Z,21.67
2018-07-15T05:34:06.507Z,23.33
2018-07-15T05:36:37.102Z,21.00
2018-07-15T05:39:07.736Z,22.67
2018-07-15T05:41:38.270Z,22.67
2018-07-15T05:44:08.980Z,19.67
2018-07-15T05:46:39.305Z,19.33
2018-07-15T05:49:09.853Z,21.00
2018-07-15T05:51:41.862Z,24.67
2018-07-15T05:54:12.440Z,20.33
2018-07-15T05:56:43.079Z,20.67
2018-07-15T05:59:13.644Z,19.33
2018-07-15T06:01:44.687Z,20.00
2018-07-15T06:04:15.336Z,23.33
2018-07-15T06:06:45.955Z,20.33
2018-07-15T06:09:16.599Z,18.33
2018-07-15T06:11:47.232Z,18.33
2018-07-15T06:14:20.889Z,20.33
2018-07-15T06:16:53.271Z,22.00
2018-07-15T06:19:39.950Z,23.33
2018-07-15T06:22:12.604Z,19.67
2018-07-15T06:24:43.704Z,20.00
2018-07-15T06:27:26.330Z,21.33
2018-07-15T06:29:58.681Z,24.00
2018-07-15T06:32:29.937Z,21.00
2018-07-15T06:35:13.709Z,23.67
2018-07-15T06:37:51.850Z,20.67
2018-07-15T06:40:28.437Z,22.67
2018-07-15T06:42:59.452Z,23.00
2018-07-15T06:45:36.620Z,20.67
2018-07-15T06:48:13.363Z,24.67
2018-07-15T06:50:43.968Z,22.00
2018-07-15T06:53:19.529Z,19.67
2018-07-15T06:55:50.155Z,20.33
2018-07-15T06:58:21.674Z,18.67
2018-07-15T07:00:54.882Z,20.00
2018-07-15T07:03:26.487Z,20.00
2018-07-15T07:05:57.052Z,22.00
2018-07-15T07:08:29.520Z,21.00
2018-07-15T07:11:01.542Z,18.67
2018-07-15T07:13:32.719Z,19.67
2018-07-15T07:16:04.208Z,21.67
2018-07-15T07:18:34.949Z,20.67
2018-07-15T07:21:05.575Z,25.00
2018-07-15T07:23:37.162Z,20.00
2018-07-15T07:26:07.916Z,21.00
2018-07-15T07:28:38.307Z,17.67
2018-07-15T07:31:08.829Z,20.67
2018-07-15T07:33:39.473Z,19.67
2018-07-15T07:36:10.128Z,22.33
2018-07-15T07:38:40.790Z,20.33
2018-07-15T07:41:12.917Z,20.33
2018-07-15T07:43:43.360Z,24.67
2018-07-15T07:46:15.738Z,20.67
2018-07-15T07:48:46.309Z,21.33
2018-07-15T07:51:19.826Z,21.67
2018-07-15T07:53:51.620Z,20.67
2018-07-15T07:56:23.386Z,23.67
2018-07-15T07:58:54.893Z,19.33
2018-07-15T08:01:25.443Z,22.00
2018-07-15T08:03:58.405Z,19.33
2018-07-15T08:06:30.438Z,19.00
2018-07-15T08:09:02.436Z,21.00
2018-07-15T08:11:33.398Z,23.67
2018-07-15T08:14:04.042Z,21.00
2018-07-15T08:16:35.562Z,21.67
2018-07-15T08:19:06.095Z,20.00
2018-07-15T08:21:37.149Z,20.33
2018-07-15T08:24:07.753Z,23.33
2018-07-15T08:26:38.444Z,18.67
2018-07-15T08:29:10.909Z,17.00
2018-07-15T08:31:43.329Z,20.00
2018-07-15T08:34:15.988Z,19.67
2018-07-15T08:36:47.434Z,20.00
2018-07-15T08:39:20.840Z,20.33
2018-07-15T08:41:51.783Z,18.33
2018-07-15T08:44:23.252Z,20.00
2018-07-15T08:46:53.932Z,17.00
2018-07-15T08:49:24.574Z,18.33
2018-07-15T08:51:57.626Z,19.00
2018-07-15T08:54:28.561Z,17.00
2018-07-15T08:56:59.650Z,19.00
2018-07-15T08:59:33.180Z,19.00
2018-07-15T09:02:05.407Z,20.00
2018-07-15T09:04:37.364Z,17.00
2018-07-15T09:07:12.289Z,18.00
2018-07-15T09:09:46.351Z,19.67
2018-07-15T09:12:18.608Z,18.00
2018-07-15T09:14:51.996Z,18.67
2018-07-15T09:17:28.536Z,18.67
2018-07-15T09:20:03.008Z,19.00
2018-07-15T09:22:35.593Z,17.33
2018-07-15T09:25:10.180Z,17.00
2018-07-15T09:27:44.428Z,15.00
2018-07-15T09:30:19.994Z,18.00
2018-07-15T09:32:56.604Z,17.00
2018-07-15T09:35:29.001Z,17.67
2018-07-15T09:38:16.214Z,19.33
2018-07-15T09:40:48.334Z,16.67
2018-07-15T09:43:20.312Z,16.67
2018-07-15T09:45:53.577Z,17.67
2018-07-15T09:48:26.391Z,17.33
2018-07-15T09:51:00.263Z,14.00
2018-07-15T09:53:33.413Z,16.67
2018-07-15T09:56:05.719Z,16.00
2018-07-15T09:58:38.419Z,15.33
2018-07-15T10:01:11.581Z,17.00
2018-07-15T10:03:56.628Z,15.33
2018-07-15T10:06:28.993Z,16.33
2018-07-15T10:09:02.436Z,14.33
2018-07-15T10:11:35.290Z,17.00
2018-07-15T10:14:08.339Z,14.67
2018-07-15T10:16:41.189Z,15.33
2018-07-15T10:19:12.666Z,14.33
2018-07-15T10:21:45.770Z,16.67
2018-07-15T10:24:18.192Z,16.00
2018-07-15T10:26:50.612Z,15.33
2018-07-15T10:29:22.480Z,14.67
2018-07-15T10:31:55.728Z,15.33
2018-07-15T10:34:28.522Z,15.00
2018-07-15T10:37:00.182Z,15.00
2018-07-15T10:39:31.952Z,15.33
2018-07-15T10:42:04.156Z,14.00
2018-07-15T10:44:36.945Z,13.67
2018-07-15T10:47:09.035Z,14.67
2018-07-15T10:49:40.153Z,14.00
2018-07-15T10:52:11.352Z,17.00
2018-07-15T10:54:47.928Z,13.75
2018-07-15T10:57:19.393Z,15.00
2018-07-15T10:59:52.199Z,16.00
2018-07-15T11:02:26.429Z,16.33
2018-07-15T11:04:59.949Z,15.00
2018-07-15T11:07:33.639Z,19.00
2018-07-15T11:10:06.238Z,15.00
2018-07-15T11:12:37.377Z,14.00
2018-07-15T11:15:14.616Z,12.00
2018-07-15T11:17:49.193Z,13.33
2018-07-15T11:20:23.621Z,12.75
2018-07-15T11:22:56.421Z,12.00
2018-07-15T11:25:32.413Z,13.50
2018-07-15T11:28:06.688Z,11.25
2018-07-15T11:30:38.179Z,12.67
2018-07-15T11:33:11.122Z,11.67
2018-07-15T11:35:43.983Z,10.33
2018-07-15T11:38:16.625Z,10.60
2018-07-15T11:40:48.225Z,10.33
2018-07-15T11:43:21.261Z,11.00
2018-07-15T11:45:56.666Z,10.80
2018-07-15T11:48:29.365Z,10.40
2018-07-15T11:51:04.390Z,11.20
2018-07-15T11:53:37.287Z,12.40
2018-07-15T11:56:10.308Z,8.67
2018-07-15T11:58:42.687Z,10.00
2018-07-15T12:01:16.845Z,14.00
2018-07-15T12:03:48.635Z,10.67
2018-07-15T12:06:21.075Z,11.00
2018-07-15T12:08:53.150Z,12.33
2018-07-15T12:11:29.593Z,13.00
2018-07-15T12:14:04.761Z,12.75
2018-07-15T12:16:37.514Z,11.67
2018-07-15T12:19:15.688Z,11.67
2018-07-15T12:21:48.793Z,14.00
2018-07-15T12:24:19.913Z,12.00
2018-07-15T12:26:55.582Z,13.00
2018-07-15T12:29:33.432Z,12.50
2018-07-15T12:32:11.751Z,13.50
2018-07-15T12:34:45.847Z,11.00
2018-07-15T12:37:17.878Z,11.00
2018-07-15T12:39:49.984Z,10.20
2018-07-15T12:42:22.112Z,9.33
2018-07-15T12:44:54.417Z,12.00
2018-07-15T12:47:29.617Z,9.57
2018-07-15T12:50:02.837Z,11.25
2018-07-15T12:52:35.179Z,12.00
2018-07-15T12:55:07.441Z,9.67
2018-07-15T12:57:44.102Z,12.00
2018-07-15T13:00:18.428Z,12.75
2018-07-15T13:02:52.728Z,12.00
2018-07-15T13:05:28.300Z,12.00
2018-07-15T13:08:00.545Z,11.67
2018-07-15T13:10:32.477Z,13.67
2018-07-15T13:13:08.407Z,12.00
2018-07-15T13:15:42.038Z,13.00
2018-07-15T13:18:16.340Z,12.00
2018-07-15T13:20:49.624Z,11.00
2018-07-15T13:23:24.806Z,10.40
2018-07-15T13:25:56.818Z,13.00
2018-07-15T13:28:28.089Z,9.67
2018-07-15T13:31:15.299Z,10.00
2018-07-15T13:33:47.846Z,9.67
2018-07-15T13:39:10.561Z,10.00
2018-07-15T13:41:44.556Z,10.40
2018-07-15T13:44:16.189Z,11.00
2018-07-15T13:46:56.705Z,10.00
2018-07-15T13:49:30.724Z,11.00
2018-07-15T13:52:01.992Z,9.33
2018-07-15T13:54:34.098Z,10.33
2018-07-15T13:57:06.291Z,11.60
2018-07-15T13:59:38.611Z,10.67
2018-07-15T14:02:10.410Z,11.00
2018-07-15T14:04:43.857Z,9.20
2018-07-15T14:07:22.317Z,9.57
2018-07-15T14:09:56.339Z,8.80
2018-07-15T14:12:30.170Z,9.40
2018-07-15T14:15:03.933Z,9.00
2018-07-15T14:17:36.620Z,11.00
2018-07-15T14:20:13.136Z,9.29
2018-07-15T14:22:47.467Z,10.60
2018-07-15T14:25:20.864Z,9.67
2018-07-15T14:27:56.788Z,7.00
2018-07-15T14:30:30.770Z,8.00
2018-07-15T14:33:09.441Z,9.29
2018-07-15T14:35:43.595Z,10.00
2018-07-15T14:38:18.060Z,10.00
2018-07-15T14:40:54.635Z,8.40
2018-07-15T14:43:28.363Z,8.71
2018-07-15T14:46:05.051Z,8.43
2018-07-15T14:48:39.245Z,9.00
2018-07-15T14:51:16.183Z,7.86
2018-07-15T14:53:52.939Z,8.29
2018-07-15T14:56:26.717Z,11.00
2018-07-15T14:58:59.674Z,9.60
2018-07-15T15:01:32.351Z,9.67
2018-07-15T15:04:06.371Z,10.00
2018-07-15T15:06:40.650Z,7.17
2018-07-15T15:09:14.409Z,9.14
2018-07-15T15:11:49.549Z,9.00
2018-07-15T15:14:23.371Z,7.17
2018-07-15T15:17:04.840Z,8.00
2018-07-15T15:19:38.832Z,8.00
2018-07-15T15:22:14.088Z,10.00
2018-07-15T15:24:50.399Z,8.29
2018-07-15T15:27:23.411Z,8.00
2018-07-15T15:29:57.116Z,8.80
2018-07-15T15:32:30.272Z,7.83
2018-07-15T15:35:06.933Z,8.67
2018-07-15T15:37:38.990Z,8.60
2018-07-15T15:40:16.419Z,8.00
2018-07-15T15:42:50.790Z,7.00
2018-07-15T15:45:24.133Z,8.83
2018-07-15T15:47:58.040Z,8.67
2018-07-15T15:50:31.546Z,8.00
2018-07-15T15:53:06.420Z,7.33
2018-07-15T15:55:46.579Z,8.17
2018-07-15T15:58:20.589Z,8.67
2018-07-15T16:00:55.432Z,7.83
2018-07-15T16:03:29.845Z,8.17
2018-07-15T16:06:07.380Z,7.83
2018-07-15T16:08:41.354Z,9.86
2018-07-15T16:11:16.396Z,8.50
2018-07-15T16:13:51.316Z,10.00
2018-07-15T16:16:33.108Z,8.17
2018-07-15T16:19:07.897Z,9.40
2018-07-15T16:21:53.405Z,9.00
2018-07-15T16:24:26.772Z,10.00
2018-07-15T16:27:01.145Z,8.67
2018-07-15T16:29:33.913Z,8.60
2018-07-15T16:32:12.852Z,9.86
2018-07-15T16:34:53.414Z,10.43
2018-07-15T16:37:27.716Z,9.29
2018-07-15T16:40:02.460Z,8.00
2018-07-15T16:42:39.386Z,9.50
2018-07-15T16:45:20.090Z,9.00
2018-07-15T16:47:55.728Z,10.14
2018-07-15T16:50:29.646Z,8.50
2018-07-15T16:53:02.253Z,8.33
2018-07-15T16:55:37.442Z,9.00
2018-07-15T16:58:12.426Z,9.86
2018-07-15T17:00:47.209Z,10.14
2018-07-15T17:03:22.862Z,9.71
2018-07-15T17:06:02.262Z,9.29
2018-07-15T17:08:41.716Z,9.40
2018-07-15T17:11:13.220Z,13.67
2018-07-15T17:13:46.432Z,14.00
2018-07-15T17:16:23.426Z,18.67
2018-07-15T17:18:54.673Z,18.67
2018-07-15T17:21:28.360Z,21.00
2018-07-15T17:24:00.109Z,18.33
2018-07-15T17:26:30.701Z,22.33
2018-07-15T17:29:03.331Z,18.67
2018-07-15T17:31:35.753Z,20.67
2018-07-15T17:34:09.385Z,20.67
2018-07-15T17:36:41.861Z,22.00
2018-07-15T17:39:12.400Z,21.00
2018-07-15T17:41:47.072Z,24.67
2018-07-15T17:44:19.655Z,23.67
2018-07-15T17:46:55.172Z,23.67
2018-07-15T17:49:26.686Z,23.33
2018-07-15T17:52:02.052Z,21.00
2018-07-15T17:54:37.764Z,23.00
2018-07-15T17:57:11.482Z,21.00
2018-07-15T17:59:50.559Z,25.00
2018-07-15T18:02:27.190Z,22.00
2018-07-15T18:05:02.724Z,19.67
2018-07-15T18:07:33.825Z,24.00
2018-07-15T18:10:04.482Z,19.67
2018-07-15T18:12:36.683Z,25.67
2018-07-15T18:15:08.529Z,23.33
2018-07-15T18:20:19.590Z,23.00
2018-07-15T18:22:53.805Z,21.00
2018-07-15T18:25:25.672Z,20.33
2018-07-15T18:27:59.778Z,24.67
2018-07-15T18:30:35.601Z,22.00
2018-07-15T18:33:08.109Z,26.00
2018-07-15T18:35:42.570Z,21.33
2018-07-15T18:38:16.189Z,22.00
2018-07-15T18:40:49.272Z,21.33
2018-07-15T18:43:20.442Z,19.33
2018-07-15T18:45:54.444Z,22.33
2018-07-15T18:48:28.158Z,19.00
2018-07-15T18:51:00.587Z,17.00
2018-07-15T18:53:33.589Z,21.00
2018-07-15T18:56:05.107Z,17.67
2018-07-15T18:58:37.792Z,20.67
2018-07-15T19:01:12.655Z,16.33
2018-07-15T19:03:43.402Z,20.00
2018-07-15T19:06:13.786Z,19.00
2018-07-15T19:08:44.925Z,16.00
2018-07-15T19:11:15.499Z,19.00
2018-07-15T19:13:47.552Z,17.33
2018-07-15T19:16:22.412Z,14.33
2018-07-15T19:18:54.772Z,16.33
2018-07-15T19:21:34.852Z,19.33
2018-07-15T19:24:10.884Z,18.67
2018-07-15T19:26:44.365Z,18.67
2018-07-15T19:29:15.506Z,17.67
2018-07-15T19:31:52.447Z,21.00
2018-07-15T19:34:55.277Z,20.00
2018-07-15T19:37:30.554Z,19.67
2018-07-15T19:40:08.679Z,18.00
2018-07-15T19:42:44.817Z,19.67
2018-07-15T19:45:19.960Z,19.33
2018-07-15T19:47:52.189Z,19.00
2018-07-15T19:50:23.142Z,16.00
2018-07-15T19:52:55.860Z,19.67
2018-07-15T19:55:26.166Z,18.67
2018-07-15T19:57:59.787Z,15.67
2018-07-15T20:00:34.525Z,17.00
2018-07-15T20:03:14.308Z,18.00
2018-07-15T20:05:51.386Z,17.67
2018-07-15T20:08:26.622Z,19.00
2018-07-15T20:10:59.714Z,16.00
2018-07-15T20:13:33.217Z,17.00
2018-07-15T20:16:08.795Z,17.33
2018-07-15T20:18:41.594Z,20.00
2018-07-15T20:21:14.516Z,15.67
2018-07-15T20:23:47.171Z,18.00
2018-07-15T20:26:25.438Z,15.00
2018-07-15T20:28:59.398Z,17.00
2018-07-15T20:31:33.080Z,15.33
2018-07-15T20:34:06.442Z,16.00
2018-07-15T20:36:41.220Z,16.00
2018-07-15T20:39:14.176Z,13.33
2018-07-15T20:41:47.487Z,16.00
2018-07-15T20:44:20.647Z,17.33
2018-07-15T20:46:52.547Z,15.33
2018-07-15T20:49:23.850Z,16.33
2018-07-15T20:51:58.467Z,16.33
2018-07-15T20:54:32.133Z,12.33
2018-07-15T20:57:07.517Z,13.00
2018-07-15T20:59:40.579Z,12.00
2018-07-15T21:02:17.677Z,13.00
2018-07-15T21:04:55.249Z,14.33
2018-07-15T21:07:35.427Z,15.33
2018-07-15T21:10:17.328Z,15.00
2018-07-15T21:12:51.676Z,13.33
2018-07-15T21:15:25.348Z,11.33
2018-07-15T21:17:59.996Z,13.50
2018-07-15T21:20:31.282Z,12.00
2018-07-15T21:23:02.384Z,14.33
2018-07-15T21:25:35.064Z,16.00
2018-07-15T21:28:07.083Z,13.33
2018-07-15T21:30:41.254Z,12.00
2018-07-15T21:33:12.316Z,12.00
2018-07-15T21:35:43.402Z,13.67
2018-07-15T21:38:15.535Z,12.00
2018-07-15T21:40:48.491Z,12.00
2018-07-15T21:43:22.844Z,11.00
2018-07-15T21:45:54.486Z,12.67
2018-07-15T21:48:28.098Z,13.00
2018-07-15T21:51:01.453Z,12.00
2018-07-15T21:53:33.303Z,12.67
2018-07-15T21:56:04.857Z,11.67
2018-07-15T21:58:36.013Z,14.00
2018-07-15T22:01:07.834Z,10.33
2018-07-15T22:03:41.181Z,13.00
2018-07-15T22:06:23.989Z,12.00
2018-07-15T22:10:07.918Z,13.00
2018-07-15T22:12:40.027Z,12.00
2018-07-15T22:15:13.850Z,13.00
2018-07-15T22:17:46.050Z,12.00
2018-07-15T22:20:17.831Z,12.00
2018-07-15T22:22:50.262Z,12.00
2018-07-15T22:25:24.937Z,11.80
2018-07-15T22:28:06.019Z,13.00
2018-07-15T22:30:39.562Z,12.00
2018-07-15T22:33:12.214Z,13.00
2018-07-15T22:35:44.370Z,9.00
2018-07-15T22:38:17.849Z,12.80
2018-07-15T22:40:49.860Z,11.00
2018-07-15T22:43:23.123Z,12.67
2018-07-15T22:45:56.162Z,11.33
2018-07-15T22:48:28.966Z,13.33
2018-07-15T22:51:00.641Z,14.67
2018-07-15T22:53:35.632Z,15.33
2018-07-15T22:56:08.247Z,14.00
2018-07-15T22:58:41.233Z,16.67
2018-07-15T23:01:12.656Z,13.00
2018-07-15T23:03:45.138Z,13.33
2018-07-15T23:06:19.674Z,16.00
2018-07-15T23:08:53.122Z,17.00
2018-07-15T23:11:24.415Z,14.67
2018-07-15T23:13:55.830Z,14.00
2018-07-15T23:16:27.949Z,18.00
2018-07-15T23:18:59.328Z,18.33
2018-07-15T23:21:29.820Z,18.00
2018-07-15T23:24:03.609Z,17.67
2018-07-15T23:26:36.458Z,21.00
2018-07-15T23:29:08.349Z,15.33
2018-07-15T23:31:39.701Z,19.67
2018-07-15T23:34:11.890Z,18.67
2018-07-15T23:36:42.372Z,19.67
2018-07-15T23:39:14.534Z,18.67
2018-07-15T23:41:46.984Z,21.33
2018-07-15T23:44:21.074Z,15.00
2018-07-15T23:46:51.574Z,21.00
2018-07-15T23:49:22.784Z,18.00
2018-07-15T23:51:53.089Z,18.00
2018-07-15T23:54:24.739Z,18.67
2018-07-15T23:56:56.796Z,21.00
2018-07-15T23:59:27.384Z,18.00
